Time;durP1;ratioP1;P1;durP2;ratioP2;P2;SDS_P1;SDS_P2;PMS_P1;PMS_P2;Temp;Humidity;BMP_temperature;BMP_pressure;BME280_temperature;BME280_humidity;BME280_pressure;Samples;Min_cycle;Max_cycle;Signal;HPM_P1;HPM_P2
2022/06/29 00:01:10;;;;;;;3.80;3.38;;;;;;;;;;5033703;28;20128;-58
2022/06/29 00:04:01;;;;;;;5.10;3.28;;;;;;;;;;5045361;28;20026;-58
2022/06/29 00:09:55;;;;;;;;;;;;;;;;;;;;;
2022/06/29 00:12:37;;;;;;;5.78;4.15;;;;;;;;;;5043888;28;20097;-58
2022/06/29 00:18:07;;;;;;;4.22;3.83;;;;;;;;;;5032379;28;20034;-58
2022/06/29 00:20:52;;;;;;;4.18;3.78;;;;;;;;;;5045745;28;20036;-59
2022/06/29 00:23:44;;;;;;;;;;;;;;;;;;;;;
2022/06/29 00:26:25;;;;;;;4.15;3.75;;;;;;;;;;5041716;28;20124;-58
2022/06/29 00:31:52;;;;;;;9.57;4.05;;;;;;;;;;5044827;28;20083;-58
2022/06/29 00:34:38;;;;;;;4.63;4.10;;;;;;;;;;5045807;28;20051;-58
2022/06/29 00:37:28;;;;;;;5.43;4.45;;;;;;;;;;5044793;28;20061;-58
2022/06/29 00:40:33;;;;;;;3.90;3.50;;;;;;;;;;5028069;28;20068;-58
2022/06/29 00:43:27;;;;;;;4.05;3.65;;;;;;;;;;5045039;28;20022;-58
2022/06/29 00:46:26;;;;;;;4.95;4.15;;;;;;;;;;5045577;28;20075;-58
2022/06/29 00:52:22;;;;;;;5.05;4.05;;;;;;;;;;5044407;28;20029;-58
2022/06/29 00:55:30;;;;;;;4.87;4.30;;;;;;;;;;5045523;28;20036;-58
2022/06/29 01:01:33;;;;;;;3.78;3.30;;;;;;;;;;5031434;28;20093;-58
2022/06/29 01:04:32;;;;;;;;;;;;;;;;;;;;;
2022/06/29 01:07:21;;;;;;;5.95;4.47;;;;;;;;;;5038135;28;20080;-58
2022/06/29 01:10:15;;;;;;;;;;;;;;;;;;;;;
2022/06/29 01:12:49;;;;;;;5.88;4.40;;;;;;;;;;5041962;28;20026;-58
2022/06/29 01:27:29;;;;;;;4.32;3.92;;;;;;;;;;5034945;28;20037;-58
2022/06/29 01:30:06;;;;;;;4.70;4.15;;;;;;;;;;5044008;28;20075;-58
2022/06/29 01:35:54;;;;;;;;;;;;;;;;;;;;;
2022/06/29 01:41:34;;;;;;;4.82;4.35;;;;;;;;;;5002519;28;20053;-58
2022/06/29 01:44:27;;;;;;;4.82;3.75;;;;;;;;;;5002849;28;20046;-58
2022/06/29 01:50:31;;;;;;;5.43;4.93;;;;;;;;;;5048892;28;20060;-58
2022/06/29 01:53:01;;;;;;;4.88;4.38;;;;;;;;;;5047870;28;20040;-58
2022/06/29 01:55:47;;;;;;;8.30;4.93;;;;;;;;;;5047630;28;20029;-58
2022/06/29 02:01:40;;;;;;;;;;;;;;;;;;;;;
2022/06/29 02:04:13;;;;;;;4.85;4.38;;;;;;;;;;5048540;28;20070;-58
2022/06/29 02:06:57;;;;;;;7.15;4.53;;;;;;;;;;5048829;28;20029;-58
2022/06/29 02:15:44;;;;;;;4.72;4.00;;;;;;;;;;4989267;28;20038;-58
2022/06/29 02:18:25;;;;;;;4.80;4.30;;;;;;;;;;5007274;28;20046;-58
2022/06/29 02:21:00;;;;;;;4.93;4.43;;;;;;;;;;5007171;28;20045;-58
2022/06/29 02:23:51;;;;;;;5.57;4.97;;;;;;;;;;5026987;28;20033;-58
2022/06/29 02:26:30;;;;;;;4.78;4.38;;;;;;;;;;5047957;28;20032;-58
2022/06/29 02:29:12;;;;;;;7.47;4.75;;;;;;;;;;5035926;28;20040;-57
2022/06/29 02:34:58;;;;;;;4.68;3.92;;;;;;;;;;5025357;28;20118;-58
2022/06/29 02:40:49;;;;;;;5.78;5.18;;;;;;;;;;5047724;28;20084;-58
2022/06/29 02:43:24;;;;;;;5.35;4.78;;;;;;;;;;5048264;28;20028;-58
2022/06/29 02:49:16;;;;;;;9.20;6.50;;;;;;;;;;5029130;28;20033;-58
2022/06/29 02:52:09;;;;;;;5.68;5.03;;;;;;;;;;5024915;28;20048;-58
2022/06/29 02:57:55;;;;;;;5.10;4.60;;;;;;;;;;5048012;28;20044;-58
2022/06/29 03:07:06;;;;;;;5.30;4.80;;;;;;;;;;4987509;28;20037;-58
2022/06/29 03:16:11;;;;;;;8.27;6.03;;;;;;;;;;5034552;28;20065;-58
2022/06/29 03:19:16;;;;;;;5.90;5.32;;;;;;;;;;5047452;28;20087;-58
2022/06/29 03:24:47;;;;;;;6.55;5.95;;;;;;;;;;5039354;28;20022;-58
2022/06/29 03:27:32;;;;;;;5.22;4.72;;;;;;;;;;5047384;28;20079;-58
2022/06/29 03:30:30;;;;;;;7.07;6.47;;;;;;;;;;5029180;28;20063;-58
2022/06/29 03:33:11;;;;;;;6.63;5.55;;;;;;;;;;5048089;28;20025;-58
2022/06/29 03:36:05;;;;;;;7.07;4.78;;;;;;;;;;5047197;28;20045;-58
2022/06/29 03:38:52;;;;;;;8.75;6.07;;;;;;;;;;5045479;28;20037;-58
2022/06/29 03:41:41;;;;;;;5.95;5.45;;;;;;;;;;5046744;28;20025;-58
2022/06/29 03:44:46;;;;;;;6.43;5.82;;;;;;;;;;5046365;28;20034;-58
2022/06/29 03:47:38;;;;;;;6.85;6.15;;;;;;;;;;4986358;28;20038;-58
2022/06/29 03:53:10;;;;;;;6.65;5.95;;;;;;;;;;4986114;28;20053;-59
2022/06/29 03:55:52;;;;;;;6.75;5.63;;;;;;;;;;4986206;28;20055;-58
2022/06/29 03:58:27;;;;;;;6.72;6.07;;;;;;;;;;4985086;28;20552;-58
2022/06/29 04:01:02;;;;;;;8.27;5.57;;;;;;;;;;4984607;28;20038;-58
2022/06/29 04:03:51;;;;;;;6.70;5.40;;;;;;;;;;4985470;28;20757;-57
2022/06/29 04:06:32;;;;;;;6.93;5.60;;;;;;;;;;4986096;28;20058;-58
2022/06/29 04:09:04;;;;;;;6.93;6.30;;;;;;;;;;4985508;28;20033;-58
2022/06/29 04:11:49;;;;;;;8.00;6.13;;;;;;;;;;5015508;28;20033;-58
2022/06/29 04:14:38;;;;;;;5.97;5.45;;;;;;;;;;5046378;28;20021;-58
2022/06/29 04:17:07;;;;;;;7.22;6.55;;;;;;;;;;5046434;28;20022;-58
2022/06/29 04:19:43;;;;;;;7.47;6.13;;;;;;;;;;5045700;28;20029;-58
2022/06/29 04:28:27;;;;;;;8.65;6.95;;;;;;;;;;5045429;28;20041;-58
2022/06/29 04:33:41;;;;;;;6.32;5.72;;;;;;;;;;5046321;28;20036;-58
2022/06/29 04:36:36;;;;;;;6.90;6.20;;;;;;;;;;5037089;28;20053;-58
2022/06/29 04:39:30;;;;;;;;;;;;;;;;;;;;;
2022/06/29 04:48:18;;;;;;;6.50;5.90;;;;;;;;;;5023768;28;20061;-58
2022/06/29 04:50:57;;;;;;;6.45;5.78;;;;;;;;;;5008521;28;20100;-58
2022/06/29 04:53:23;;;;;;;6.55;5.80;;;;;;;;;;5026901;28;20060;-58
2022/06/29 04:56:09;;;;;;;6.80;5.50;;;;;;;;;;5026463;28;20029;-58
2022/06/29 04:58:58;;;;;;;9.98;6.18;;;;;;;;;;5026934;28;20045;-58
2022/06/29 05:01:50;;;;;;;;;;;;;;;;;;;;;
2022/06/29 05:04:43;;;;;;;6.60;6.00;;;;;;;;;;5011513;28;20076;-59
2022/06/29 05:07:49;;;;;;;6.82;6.13;;;;;;;;;;5026574;28;20026;-58
2022/06/29 05:10:26;;;;;;;8.30;6.18;;;;;;;;;;5025645;28;20102;-58
2022/06/29 05:12:56;;;;;;;6.97;6.28;;;;;;;;;;5026273;28;20022;-58
2022/06/29 05:15:44;;;;;;;5.97;5.38;;;;;;;;;;5026169;28;20022;-58
2022/06/29 05:18:28;;;;;;;7.45;6.80;;;;;;;;;;5025576;28;20030;-58
2022/06/29 05:21:18;;;;;;;9.02;5.93;;;;;;;;;;5025550;28;20022;-58
2022/06/29 05:24:28;;;;;;;8.02;5.78;;;;;;;;;;5028013;28;20030;-58
2022/06/29 05:26:54;;;;;;;8.02;6.72;;;;;;;;;;5029471;28;20029;-58
2022/06/29 05:29:55;;;;;;;6.55;5.82;;;;;;;;;;5012186;28;20034;-58
2022/06/29 05:35:50;;;;;;;8.38;6.97;;;;;;;;;;5022243;28;20124;-58
2022/06/29 05:44:47;;;;;;;6.95;6.32;;;;;;;;;;5048425;28;20040;-58
2022/06/29 05:47:35;;;;;;;6.97;6.28;;;;;;;;;;5048447;28;20032;-58
2022/06/29 05:50:33;;;;;;;7.90;7.10;;;;;;;;;;5048978;28;20092;-58
2022/06/29 05:56:22;;;;;;;10.70;8.02;;;;;;;;;;5039172;28;20025;-58
2022/06/29 05:59:12;;;;;;;;;;;;;;;;;;;;;
2022/06/29 06:01:59;;;;;;;10.52;8.27;;;;;;;;;;5044498;28;20412;-58
2022/06/29 06:08:04;;;;;;;9.32;7.80;;;;;;;;;;5005384;28;20058;-58
2022/06/29 06:14:00;;;;;;;8.02;7.22;;;;;;;;;;5031463;28;20440;-58
2022/06/29 06:16:59;;;;;;;11.90;8.23;;;;;;;;;;5047305;28;20034;-58
2022/06/29 06:19:45;;;;;;;12.60;7.47;;;;;;;;;;5027287;28;20548;-58
2022/06/29 06:34:36;;;;;;;8.48;7.68;;;;;;;;;;4976757;28;20031;-58
2022/06/29 06:49:14;;;;;;;7.80;6.85;;;;;;;;;;5016527;28;20526;-58
2022/06/29 06:52:17;;;;;;;8.48;7.45;;;;;;;;;;5014911;28;20061;-58
2022/06/29 06:55:13;;;;;;;7.93;7.18;;;;;;;;;;4966816;28;20030;-58
2022/06/29 06:57:51;;;;;;;8.80;7.20;;;;;;;;;;5011708;28;20383;-58
2022/06/29 07:00:29;;;;;;;7.63;6.85;;;;;;;;;;4995601;28;20573;-58
2022/06/29 07:03:01;;;;;;;7.68;6.80;;;;;;;;;;5015692;28;20407;-58
2022/06/29 07:05:30;;;;;;;7.38;6.57;;;;;;;;;;4984168;28;20056;-58
2022/06/29 07:08:31;;;;;;;7.38;6.65;;;;;;;;;;4999193;28;20037;-58
2022/06/29 07:14:08;;;;;;;7.57;5.53;;;;;;;;;;5015841;28;20030;-58
2022/06/29 07:19:47;;;;;;;6.28;5.68;;;;;;;;;;5016176;28;20041;-58
2022/06/29 07:22:51;;;;;;;5.40;4.90;;;;;;;;;;4999241;28;20476;-58
2022/06/29 07:25:52;;;;;;;5.28;4.78;;;;;;;;;;4956946;28;20115;-58
2022/06/29 07:28:33;;;;;;;7.05;5.13;;;;;;;;;;4987864;28;20113;-58
2022/06/29 07:31:19;;;;;;;5.75;4.90;;;;;;;;;;5030772;28;20030;-58
2022/06/29 07:33:55;;;;;;;5.75;4.68;;;;;;;;;;5015690;28;20034;-58
2022/06/29 07:36:44;;;;;;;4.68;4.28;;;;;;;;;;5021233;28;20108;-58
2022/06/29 07:39:38;;;;;;;4.85;4.35;;;;;;;;;;5011713;28;20050;-58
2022/06/29 07:42:35;;;;;;;;;;;;;;;;;;;;;
2022/06/29 07:45:31;;;;;;;6.45;4.85;;;;;;;;;;5030112;28;20105;-58
2022/06/29 07:48:06;;;;;;;5.03;4.20;;;;;;;;;;5015964;28;20026;-58
2022/06/29 07:50:54;;;;;;;7.47;5.15;;;;;;;;;;5033528;28;20510;-58
2022/06/29 07:53:51;;;;;;;6.78;6.13;;;;;;;;;;5019060;28;20022;-58
2022/06/29 07:59:46;;;;;;;6.40;5.03;;;;;;;;;;5035595;28;20041;-58
2022/06/29 08:05:30;;;;;;;5.88;5.28;;;;;;;;;;5035606;28;20105;-58
2022/06/29 08:08:36;;;;;;;7.35;4.60;;;;;;;;;;4974592;28;20045;-58
2022/06/29 08:11:25;;;;;;;7.03;5.28;;;;;;;;;;5025648;28;20045;-58
2022/06/29 08:14:44;;;;;;;7.47;5.65;;;;;;;;;;5028234;28;20503;-58
2022/06/29 08:17:22;;;;;;;5.55;4.53;;;;;;;;;;5033636;28;20025;-58
2022/06/29 08:25:57;;;;;;;5.22;4.72;;;;;;;;;;5034051;28;20037;-59
2022/06/29 08:31:46;;;;;;;5.10;4.60;;;;;;;;;;5027161;28;20121;-58
2022/06/29 08:34:49;;;;;;;5.75;4.85;;;;;;;;;;5034076;28;20079;-59
2022/06/29 08:37:20;;;;;;;5.13;4.63;;;;;;;;;;5034375;28;20116;-58
2022/06/29 08:39:50;;;;;;;6.15;4.65;;;;;;;;;;5016626;28;20073;-59
2022/06/29 08:42:25;;;;;;;6.43;5.40;;;;;;;;;;5032027;28;20559;-58
2022/06/29 08:45:07;;;;;;;5.47;4.72;;;;;;;;;;5034030;28;20041;-59
2022/06/29 08:48:04;;;;;;;5.38;4.50;;;;;;;;;;5034643;28;20078;-59
2022/06/29 08:50:48;;;;;;;6.80;5.53;;;;;;;;;;5016465;28;20463;-58
2022/06/29 08:53:56;;;;;;;4.80;4.30;;;;;;;;;;5034503;28;20083;-58
2022/06/29 08:56:54;;;;;;;5.80;4.90;;;;;;;;;;5028346;28;20088;-59
2022/06/29 09:02:32;;;;;;;4.35;3.95;;;;;;;;;;5026312;28;20119;-58
2022/06/29 09:05:24;;;;;;;6.38;5.25;;;;;;;;;;5033799;28;20049;-59
2022/06/29 09:08:02;;;;;;;6.32;5.72;;;;;;;;;;5033937;28;20026;-59
2022/06/29 09:14:27;;;;;;;5.75;5.25;;;;;;;;;;4973153;28;20034;-59
2022/06/29 09:20:44;;;;;;;4.65;3.75;;;;;;;;;;5031854;28;20045;-59
2022/06/29 09:26:23;;;;;;;5.63;4.70;;;;;;;;;;5011470;28;20025;-58
2022/06/29 09:29:10;;;;;;;7.18;4.80;;;;;;;;;;5022702;28;20076;-59
2022/06/29 09:35:39;;;;;;;8.07;4.45;;;;;;;;;;5021743;28;20464;-59
2022/06/29 09:38:20;;;;;;;;;;;;;;;;;;4973083;28;20507;-59
2022/06/29 09:41:28;;;;;;;6.90;5.32;;;;;;;;;;5043300;28;20363;-58
2022/06/29 09:44:21;;;;;;;7.00;5.00;;;;;;;;;;4975347;28;20034;-58
2022/06/29 09:50:37;;;;;;;5.43;4.90;;;;;;;;;;4972981;28;20397;-58
2022/06/29 09:53:24;;;;;;;5.97;5.43;;;;;;;;;;4976333;28;20037;-59
2022/06/29 09:56:01;;;;;;;5.90;4.55;;;;;;;;;;5034752;28;20024;-58
2022/06/29 09:58:56;;;;;;;6.13;4.93;;;;;;;;;;5016608;28;20053;-59
2022/06/29 10:04:16;;;;;;;4.30;3.83;;;;;;;;;;5033943;28;20036;-58
2022/06/29 10:07:07;;;;;;;4.22;3.75;;;;;;;;;;5033630;28;20423;-59
2022/06/29 10:15:32;;;;;;;5.15;4.63;;;;;;;;;;4996159;28;20029;-59
2022/06/29 10:21:27;;;;;;;4.60;4.18;;;;;;;;;;4995978;28;20535;-58
2022/06/29 10:27:14;;;;;;;5.95;4.50;;;;;;;;;;4993572;28;20077;-59
2022/06/29 10:29:57;;;;;;;5.25;4.75;;;;;;;;;;4994922;28;20046;-58
2022/06/29 10:32:27;;;;;;;4.35;3.95;;;;;;;;;;4994836;28;20033;-59
2022/06/29 10:35:07;;;;;;;5.03;4.50;;;;;;;;;;4994760;28;20041;-59
2022/06/29 10:38:06;;;;;;;6.20;5.10;;;;;;;;;;4992277;28;20515;-59
2022/06/29 10:44:05;;;;;;;5.40;4.90;;;;;;;;;;5036825;28;20118;-58
2022/06/29 10:50:15;;;;;;;;;;;;;;;;;;;;;
2022/06/29 10:53:04;;;;;;;;;;;;;;;;;;;;;
2022/06/29 10:56:04;;;;;;;6.22;4.30;;;;;;;;;;5024691;28;20041;-59
2022/06/29 11:13:39;;;;;;;6.45;4.82;;;;;;;;;;5035812;28;20056;-59
2022/06/29 11:16:15;;;;;;;7.60;4.60;;;;;;;;;;5036644;28;20029;-59
2022/06/29 11:18:46;;;;;;;4.43;4.03;;;;;;;;;;5034321;28;20084;-59
2022/06/29 11:24:58;;;;;;;12.20;4.90;;;;;;;;;;5013595;28;20026;-59
2022/06/29 11:31:07;;;;;;;5.50;4.78;;;;;;;;;;5023977;28;20038;-59
2022/06/29 11:36:42;;;;;;;7.80;4.38;;;;;;;;;;5035402;28;20399;-59
2022/06/29 11:39:27;;;;;;;4.63;4.22;;;;;;;;;;5035652;28;20022;-59
2022/06/29 11:45:25;;;;;;;;;;;;;;;;;;;;;
2022/06/29 11:48:04;;;;;;;6.13;4.72;;;;;;;;;;5033493;28;20034;-59
2022/06/29 11:50:51;;;;;;;4.63;4.00;;;;;;;;;;5032644;28;20037;-59
2022/06/29 11:56:43;;;;;;;3.65;3.33;;;;;;;;;;5033230;28;20033;-59
2022/06/29 11:59:27;;;;;;;4.72;3.40;;;;;;;;;;5033135;28;20038;-59
2022/06/29 12:02:12;;;;;;;4.93;3.60;;;;;;;;;;5019495;28;20046;-59
2022/06/29 12:05:07;;;;;;;5.32;3.45;;;;;;;;;;5032955;28;20041;-59
2022/06/29 12:07:33;;;;;;;4.68;3.53;;;;;;;;;;5015946;28;20033;-59
2022/06/29 12:10:08;;;;;;;4.05;3.50;;;;;;;;;;5032047;28;20037;-59
2022/06/29 12:12:57;;;;;;;4.45;3.70;;;;;;;;;;5032262;28;20034;-59
2022/06/29 12:15:52;;;;;;;4.15;2.67;;;;;;;;;;5023390;28;20356;-59
2022/06/29 12:18:36;;;;;;;4.70;3.47;;;;;;;;;;5030326;28;20037;-59
2022/06/29 12:21:09;;;;;;;6.60;3.92;;;;;;;;;;5033497;28;20065;-59
2022/06/29 12:27:10;;;;;;;;;;;;;;;;;;;;;
2022/06/29 12:29:51;;;;;;;4.07;3.58;;;;;;;;;;5035681;28;20105;-59
2022/06/29 12:35:17;;;;;;;3.30;3.00;;;;;;;;;;5034541;28;20044;-59
2022/06/29 12:38:04;;;;;;;8.38;3.25;;;;;;;;;;5033786;28;20050;-59
2022/06/29 12:41:05;;;;;;;4.85;3.67;;;;;;;;;;5034701;28;20124;-59
2022/06/29 12:43:49;;;;;;;5.63;4.13;;;;;;;;;;5034440;28;20028;-59
2022/06/29 12:46:52;;;;;;;7.13;4.03;;;;;;;;;;5033451;28;20459;-59
2022/06/29 12:49:26;;;;;;;3.78;3.28;;;;;;;;;;5034039;28;20033;-59
2022/06/29 12:52:09;;;;;;;3.33;3.03;;;;;;;;;;5034044;28;20036;-59
2022/06/29 12:54:54;;;;;;;3.72;3.20;;;;;;;;;;5034679;28;20420;-59
2022/06/29 13:00:35;;;;;;;4.72;3.00;;;;;;;;;;5034206;28;20124;-59
2022/06/29 13:03:48;;;;;;;4.30;3.00;;;;;;;;;;5033336;28;20112;-59
2022/06/29 13:06:29;;;;;;;4.70;3.78;;;;;;;;;;5034124;28;20087;-59
2022/06/29 13:09:01;;;;;;;5.97;3.35;;;;;;;;;;5033507;28;20120;-59
2022/06/29 13:15:10;;;;;;;5.65;3.45;;;;;;;;;;5021830;28;20037;-59
2022/06/29 13:17:37;;;;;;;3.25;2.65;;;;;;;;;;5034282;28;20026;-59
2022/06/29 13:20:25;;;;;;;12.63;3.83;;;;;;;;;;5033064;28;20038;-59
2022/06/29 13:23:37;;;;;;;7.93;3.65;;;;;;;;;;5032128;28;20042;-59
2022/06/29 13:26:07;;;;;;;5.75;2.97;;;;;;;;;;5031789;28;20029;-59
2022/06/29 13:28:59;;;;;;;7.20;3.38;;;;;;;;;;5032882;28;20035;-59
2022/06/29 13:31:37;;;;;;;2.50;1.98;;;;;;;;;;5033964;28;20077;-59
2022/06/29 13:34:20;;;;;;;5.07;3.58;;;;;;;;;;5035491;28;20106;-59
2022/06/29 13:36:53;;;;;;;4.85;3.05;;;;;;;;;;5034936;28;20032;-59
2022/06/29 13:39:33;;;;;;;6.07;2.97;;;;;;;;;;5015966;28;20088;-59
2022/06/29 13:42:05;;;;;;;3.88;3.20;;;;;;;;;;5015422;28;20065;-59
2022/06/29 13:44:38;;;;;;;7.22;3.53;;;;;;;;;;5000987;28;20529;-59
2022/06/29 13:47:26;;;;;;;4.95;3.17;;;;;;;;;;5019731;28;20030;-59
2022/06/29 13:50:09;;;;;;;3.38;2.60;;;;;;;;;;5020201;28;20041;-59
2022/06/29 13:53:05;;;;;;;3.58;3.08;;;;;;;;;;5019493;28;20073;-59
2022/06/29 13:55:41;;;;;;;4.32;3.10;;;;;;;;;;5001296;28;20045;-59
2022/06/29 13:58:16;;;;;;;4.78;2.78;;;;;;;;;;5019845;28;20057;-59
2022/06/29 14:00:49;;;;;;;3.30;2.53;;;;;;;;;;5019297;28;20022;-59
2022/06/29 14:03:36;;;;;;;3.92;3.03;;;;;;;;;;5018943;28;20034;-59
2022/06/29 14:06:11;;;;;;;3.13;2.45;;;;;;;;;;4988903;28;20520;-59
2022/06/29 14:08:44;;;;;;;3.97;3.20;;;;;;;;;;5001495;28;20042;-59
2022/06/29 14:11:28;;;;;;;;;;;;;;;;;;;;;
2022/06/29 14:16:59;;;;;;;5.05;3.63;;;;;;;;;;5011433;28;20424;-59
2022/06/29 14:22:35;;;;;;;3.33;3.03;;;;;;;;;;4996385;28;20424;-59
2022/06/29 14:25:08;;;;;;;5.30;2.83;;;;;;;;;;5014423;28;20030;-59
2022/06/29 14:28:05;;;;;;;6.47;3.28;;;;;;;;;;5000640;28;20062;-59
2022/06/29 14:30:44;;;;;;;5.15;3.00;;;;;;;;;;4997144;28;20069;-59
2022/06/29 14:33:45;;;;;;;4.15;2.92;;;;;;;;;;5017354;28;20042;-59
2022/06/29 14:42:06;;;;;;;4.68;2.45;;;;;;;;;;5035853;28;20029;-59
2022/06/29 14:44:51;;;;;;;3.75;2.90;;;;;;;;;;5019412;28;20084;-59
2022/06/29 14:47:33;;;;;;;;;;;;;;;;;;;;;
2022/06/29 14:50:35;;;;;;;3.95;2.85;;;;;;;;;;5038061;28;20108;-59
2022/06/29 14:55:55;;;;;;;5.32;3.15;;;;;;;;;;5036548;28;20502;-59
2022/06/29 14:58:30;;;;;;;6.53;3.92;;;;;;;;;;5036973;28;20083;-59
2022/06/29 15:01:19;;;;;;;3.05;2.45;;;;;;;;;;5016969;28;20033;-59
2022/06/29 15:07:00;;;;;;;4.35;2.85;;;;;;;;;;5031508;28;20030;-59
2022/06/29 15:12:43;;;;;;;6.15;3.63;;;;;;;;;;4995033;28;20026;-59
2022/06/29 15:15:28;;;;;;;5.85;3.28;;;;;;;;;;4995384;28;20037;-59
2022/06/29 15:21:04;;;;;;;4.00;3.20;;;;;;;;;;5037208;28;20107;-59
2022/06/29 15:23:48;;;;;;;5.75;4.03;;;;;;;;;;5036827;28;20105;-59
2022/06/29 15:27:07;;;;;;;;;;;;;;;;;;;;;
2022/06/29 15:29:15;;;;;;;4.20;3.03;;;;;;;;;;5027938;28;20036;-59
2022/06/29 15:31:51;;;;;;;5.18;3.60;;;;;;;;;;4998260;28;20498;-59
2022/06/29 15:42:46;;;;;;;3.80;3.47;;;;;;;;;;5035317;28;20026;-59
2022/06/29 15:45:19;;;;;;;4.65;3.28;;;;;;;;;;5035088;28;20056;-59
2022/06/29 15:48:10;;;;;;;5.30;3.75;;;;;;;;;;5018599;28;20124;-59
2022/06/29 15:50:37;;;;;;;5.47;4.05;;;;;;;;;;5015976;28;20525;-59
2022/06/29 15:59:05;;;;;;;4.22;3.35;;;;;;;;;;5018358;28;20087;-59
2022/06/29 16:01:43;;;;;;;4.13;3.40;;;;;;;;;;5015778;28;20033;-59
2022/06/29 16:04:43;;;;;;;;;;;;;;;;;;;;;
2022/06/29 16:07:18;;;;;;;4.05;3.00;;;;;;;;;;5032216;28;20026;-59
2022/06/29 16:10:13;;;;;;;3.78;3.08;;;;;;;;;;5035118;28;20561;-59
2022/06/29 16:12:53;;;;;;;3.65;3.03;;;;;;;;;;5016847;28;20025;-59
2022/06/29 16:15:30;;;;;;;11.00;3.50;;;;;;;;;;5016813;28;20545;-59
2022/06/29 16:24:12;;;;;;;3.70;3.38;;;;;;;;;;4989396;28;20558;-59
2022/06/29 16:26:50;;;;;;;4.05;3.28;;;;;;;;;;5027575;28;20042;-59
2022/06/29 16:29:30;;;;;;;4.03;3.38;;;;;;;;;;5016483;28;20033;-59
2022/06/29 16:32:02;;;;;;;4.15;3.47;;;;;;;;;;5016311;28;20021;-60
2022/06/29 16:34:44;;;;;;;4.45;3.78;;;;;;;;;;5034822;28;20037;-59
2022/06/29 16:37:28;;;;;;;3.83;3.25;;;;;;;;;;5034496;28;20096;-59
2022/06/29 16:40:27;;;;;;;8.15;3.60;;;;;;;;;;5033337;28;20462;-59
2022/06/29 16:42:55;;;;;;;4.57;3.50;;;;;;;;;;4972876;28;20578;-60
2022/06/29 16:48:42;;;;;;;4.03;3.33;;;;;;;;;;5031294;28;20033;-59
2022/06/29 16:51:11;;;;;;;3.60;2.95;;;;;;;;;;5032612;28;20037;-59
2022/06/29 16:53:46;;;;;;;4.32;3.15;;;;;;;;;;5033828;28;20029;-59
2022/06/29 16:59:14;;;;;;;4.25;3.53;;;;;;;;;;4992657;28;20045;-59
2022/06/29 17:02:09;;;;;;;4.00;3.28;;;;;;;;;;4993051;28;20113;-59
2022/06/29 17:04:49;;;;;;;5.60;3.60;;;;;;;;;;4966103;28;20150;-59
2022/06/29 17:07:53;;;;;;;4.57;3.60;;;;;;;;;;4991602;28;20034;-59
2022/06/29 17:10:54;;;;;;;3.83;3.33;;;;;;;;;;4991858;28;20412;-59
2022/06/29 17:13:39;;;;;;;;;;;;;;;;;;;;;
2022/06/29 17:16:06;;;;;;;5.00;3.42;;;;;;;;;;4988749;28;20030;-59
2022/06/29 17:18:41;;;;;;;4.20;3.28;;;;;;;;;;4964734;28;20142;-59
2022/06/29 17:24:22;;;;;;;3.75;2.78;;;;;;;;;;4996289;28;20074;-59
2022/06/29 17:27:04;;;;;;;4.50;3.72;;;;;;;;;;5011978;28;20050;-59
2022/06/29 17:29:39;;;;;;;13.93;3.65;;;;;;;;;;5006057;28;20391;-59
2022/06/29 17:32:10;;;;;;;4.40;3.00;;;;;;;;;;5036497;28;20029;-59
2022/06/29 17:34:50;;;;;;;4.60;3.80;;;;;;;;;;5037388;28;20080;-59
2022/06/29 17:37:37;;;;;;;4.03;3.58;;;;;;;;;;5003353;28;20030;-59
2022/06/29 17:40:24;;;;;;;3.80;2.90;;;;;;;;;;5017781;28;20554;-59
2022/06/29 17:43:02;;;;;;;6.13;3.47;;;;;;;;;;5018911;28;20041;-59
2022/06/29 17:45:48;;;;;;;5.50;3.45;;;;;;;;;;5037250;28;20033;-59
2022/06/29 17:51:39;;;;;;;4.13;3.42;;;;;;;;;;5038198;28;20045;-59
2022/06/29 17:54:14;;;;;;;3.72;2.83;;;;;;;;;;5037057;28;20099;-59
2022/06/29 17:56:47;;;;;;;3.85;3.17;;;;;;;;;;5019649;28;20487;-59
2022/06/29 17:59:23;;;;;;;7.10;3.33;;;;;;;;;;5020254;28;20116;-59
2022/06/29 18:02:06;;;;;;;4.40;3.60;;;;;;;;;;5034739;28;20037;-59
2022/06/29 18:04:52;;;;;;;4.20;3.28;;;;;;;;;;5037701;28;20021;-59
2022/06/29 18:07:35;;;;;;;7.47;4.00;;;;;;;;;;5035693;28;20041;-59
2022/06/29 18:10:14;;;;;;;4.38;3.80;;;;;;;;;;5038080;28;20113;-59
2022/06/29 18:12:58;;;;;;;4.05;3.65;;;;;;;;;;5037354;28;20021;-59
2022/06/29 18:15:39;;;;;;;5.10;3.33;;;;;;;;;;5037384;28;20048;-59
2022/06/29 18:18:21;;;;;;;5.57;3.78;;;;;;;;;;5018246;28;20486;-59
2022/06/29 18:21:14;;;;;;;4.00;3.10;;;;;;;;;;5028893;28;20418;-59
2022/06/29 18:24:24;;;;;;;3.45;3.08;;;;;;;;;;5029527;28;20093;-59
2022/06/29 18:27:16;;;;;;;;;;;;;;;;;;;;;
2022/06/29 18:29:45;;;;;;;4.20;3.80;;;;;;;;;;5033334;28;20073;-59
2022/06/29 18:32:14;;;;;;;4.22;3.80;;;;;;;;;;5036691;28;20400;-59
2022/06/29 18:34:53;;;;;;;4.88;3.90;;;;;;;;;;5018502;28;20029;-59
2022/06/29 18:37:52;;;;;;;4.97;4.05;;;;;;;;;;5033971;28;20029;-59
2022/06/29 18:40:27;;;;;;;9.07;3.22;;;;;;;;;;5035988;28;20104;-59
2022/06/29 18:42:56;;;;;;;4.97;3.33;;;;;;;;;;5017848;28;20065;-59
2022/06/29 18:45:25;;;;;;;3.92;3.20;;;;;;;;;;5036632;28;20021;-59
2022/06/29 18:48:11;;;;;;;4.15;3.13;;;;;;;;;;5019556;28;20105;-59
2022/06/29 18:50:54;;;;;;;5.05;3.65;;;;;;;;;;5037072;28;20030;-59
2022/06/29 18:54:01;;;;;;;3.60;3.05;;;;;;;;;;5018164;28;20045;-59
2022/06/29 18:56:39;;;;;;;5.80;3.40;;;;;;;;;;5006719;28;20045;-59
2022/06/29 18:59:35;;;;;;;3.70;3.00;;;;;;;;;;5036045;28;20057;-59
2022/06/29 19:02:18;;;;;;;4.00;3.40;;;;;;;;;;5036343;28;20033;-59
2022/06/29 19:05:04;;;;;;;4.60;3.75;;;;;;;;;;5035461;28;20108;-59
2022/06/29 19:07:46;;;;;;;;;;;;;;;;;;;;;
2022/06/29 19:13:34;;;;;;;4.50;3.03;;;;;;;;;;4974592;28;20030;-59
2022/06/29 19:16:22;;;;;;;4.65;3.53;;;;;;;;;;4974762;28;20023;-59
2022/06/29 19:22:32;;;;;;;;;;;;;;;;;;;;;
2022/06/29 19:28:16;;;;;;;3.20;2.65;;;;;;;;;;4974798;28;20349;-59
2022/06/29 19:34:18;;;;;;;3.83;3.15;;;;;;;;;;5031685;28;20451;-59
2022/06/29 19:37:15;;;;;;;5.95;3.70;;;;;;;;;;5017695;28;20109;-59
2022/06/29 19:39:51;;;;;;;4.50;3.78;;;;;;;;;;5035800;28;20079;-58
2022/06/29 19:42:37;;;;;;;4.28;3.42;;;;;;;;;;5036458;28;20033;-59
2022/06/29 19:45:20;;;;;;;4.72;3.75;;;;;;;;;;5035604;28;20108;-59
2022/06/29 19:48:07;;;;;;;4.82;3.00;;;;;;;;;;5017325;28;20034;-59
2022/06/29 19:50:42;;;;;;;3.95;3.40;;;;;;;;;;5018690;28;20025;-59
2022/06/29 19:53:17;;;;;;;4.60;2.90;;;;;;;;;;5035369;28;20025;-59
2022/06/29 19:58:57;;;;;;;5.45;3.90;;;;;;;;;;5034215;28;20037;-59
2022/06/29 20:05:02;;;;;;;3.30;2.97;;;;;;;;;;5017031;28;20183;-59
2022/06/29 20:07:45;;;;;;;5.50;3.58;;;;;;;;;;5035290;28;20041;-59
2022/06/29 20:10:17;;;;;;;5.82;3.30;;;;;;;;;;5017786;28;20379;-59
2022/06/29 20:13:01;;;;;;;3.88;3.47;;;;;;;;;;5034137;28;20368;-59
2022/06/29 20:15:47;;;;;;;3.22;2.67;;;;;;;;;;5035322;28;20467;-59
2022/06/29 20:18:18;;;;;;;4.25;3.33;;;;;;;;;;5031648;28;20033;-59
2022/06/29 20:21:04;;;;;;;3.90;2.75;;;;;;;;;;5034924;28;20455;-59
2022/06/29 20:23:51;;;;;;;3.85;3.15;;;;;;;;;;5035066;28;20027;-59
2022/06/29 20:26:34;;;;;;;3.70;3.25;;;;;;;;;;5034637;28;20025;-59
2022/06/29 20:29:18;;;;;;;8.25;3.00;;;;;;;;;;5023870;28;20045;-59
2022/06/29 20:32:05;;;;;;;;;;;;;;;;;;;;;
2022/06/29 20:35:06;;;;;;;3.80;2.83;;;;;;;;;;5030940;28;20431;-59
2022/06/29 20:37:55;;;;;;;3.13;2.78;;;;;;;;;;5033496;28;20189;-59
2022/06/29 20:40:32;;;;;;;4.30;2.95;;;;;;;;;;5031996;28;20065;-58
2022/06/29 20:49:38;;;;;;;3.95;2.60;;;;;;;;;;4978033;28;20035;-59
2022/06/29 20:52:14;;;;;;;5.45;3.10;;;;;;;;;;5034471;28;20479;-59
2022/06/29 20:55:00;;;;;;;4.05;2.55;;;;;;;;;;5016404;28;20034;-59
2022/06/29 20:57:28;;;;;;;6.32;3.17;;;;;;;;;;5017059;28;20468;-59
2022/06/29 21:00:23;;;;;;;4.10;3.40;;;;;;;;;;5034783;28;20467;-59
2022/06/29 21:03:23;;;;;;;4.45;2.75;;;;;;;;;;5015939;28;20041;-59
2022/06/29 21:09:14;;;;;;;;;;;;;;;;;;;;;
2022/06/29 21:12:04;;;;;;;8.80;3.42;;;;;;;;;;5037945;28;20115;-58
2022/06/29 21:14:34;;;;;;;4.35;2.95;;;;;;;;;;5038054;28;20451;-59
2022/06/29 21:17:22;;;;;;;4.75;3.13;;;;;;;;;;5019599;28;20021;-59
2022/06/29 21:20:11;;;;;;;3.88;3.08;;;;;;;;;;5037421;28;20030;-59
2022/06/29 21:22:49;;;;;;;3.92;3.10;;;;;;;;;;5036814;28;20033;-59
2022/06/29 21:25:40;;;;;;;4.35;3.10;;;;;;;;;;5021508;28;20022;-58
2022/06/29 21:28:10;;;;;;;3.30;2.75;;;;;;;;;;5038194;28;20026;-58
2022/06/29 21:30:57;;;;;;;4.22;3.00;;;;;;;;;;5038285;28;20161;-58
2022/06/29 21:37:02;;;;;;;5.65;2.30;;;;;;;;;;4995275;28;20035;-58
2022/06/29 21:39:44;;;;;;;3.67;2.65;;;;;;;;;;4995899;28;20038;-59
2022/06/29 21:42:42;;;;;;;3.75;2.22;;;;;;;;;;4994831;28;20522;-59
2022/06/29 21:45:29;;;;;;;;;;;;;;;;;;;;;
2022/06/29 21:48:04;;;;;;;4.75;3.03;;;;;;;;;;4992975;28;20121;-58
2022/06/29 21:51:09;;;;;;;3.47;2.70;;;;;;;;;;4996294;28;20031;-59
2022/06/29 21:53:49;;;;;;;3.17;2.70;;;;;;;;;;4989419;28;20110;-58
2022/06/29 21:56:37;;;;;;;3.35;2.40;;;;;;;;;;4995313;28;20094;-59
2022/06/29 21:59:40;;;;;;;7.50;3.10;;;;;;;;;;4996029;28;20066;-59
2022/06/29 22:02:08;;;;;;;3.83;2.58;;;;;;;;;;4996117;28;20383;-59
2022/06/29 22:05:05;;;;;;;3.17;2.65;;;;;;;;;;5021315;28;20038;-58
2022/06/29 22:07:43;;;;;;;4.20;2.75;;;;;;;;;;5040948;28;20026;-59
2022/06/29 22:10:32;;;;;;;4.43;2.15;;;;;;;;;;5024233;28;20451;-59
2022/06/29 22:13:07;;;;;;;3.65;2.72;;;;;;;;;;5040856;28;20038;-58
2022/06/29 22:16:02;;;;;;;3.17;2.15;;;;;;;;;;5042542;28;20030;-58
2022/06/29 22:18:46;;;;;;;4.95;2.60;;;;;;;;;;5042761;28;20055;-58